Istanbul, Turki

11:22 AM EEST on Oktober 02, 2014 (GMT +0300)
Ataturk | Change Station
CLOSE
Current Station
Airport
Location: Istanbul,
Elevation: 121 ft
Nearby Weather Stations

Elev 121 ft 40.98 °N, 28.81 °E | Updated 32 minutes ago

Scattered Clouds
Mendung Tidak Merata
68 °F
Feels Like 68 °F
N
13
Angin Variable Angin from Arah Timur Laut

Siang Ini
High -- | Low -- °F
--% Chance of Precip.
Yesterday
High -- | Low -- °F
Precip. -- Inch
7:02 AM 6:45 PM
Triwulan Pertama, 56% visible
Tekanan 30.24 Inch
Jarak Pandang 6.2 Mil
Awan Mendung Tidak Merata 3500 ft
Titik Embun 55 °F
Kelembaban 64%
Rainfall 0.00 Inch
Snow Depth Not available.
UV 3 out of 12
Pollen Not available.
Air Quality Not available.
Flu Activity Not available.
METAR LTBA 020750Z 05011KT 9999 SCT035 20/13 Q1024 NOSIG RMK RWY17L 06013KT RWY05 04012KT RWY23 04010KT 350V080

More Conditions Fewer Conditions

Tekanan 30.24 Inch
Jarak Pandang 6.2 Mil
Awan Mendung Tidak Merata 3500 ft
Titik Embun 55 °F
Kelembaban 64%
Rainfall 0.00 Inch
Snow Depth Not available.
UV 3 out of 12
Pollen Not available.
Air Quality Not available.
Flu Activity Not available.
METAR LTBA 020750Z 05011KT 9999 SCT035 20/13 Q1024 NOSIG RMK RWY17L 06013KT RWY05 04012KT RWY23 04010KT 350V080

More Conditions Fewer Conditions

10-Day Weather Forecast

Almanac

Astronomi

Oct. 02, 2014 Rise Set
Actual Time 7:02 AM EEST 6:45 PM EEST
Civil Twilight 6:34 AM EEST 7:12 PM EEST
Nautical Twilight 6:02 AM EEST 7:44 PM EEST
Astronomical Twilight 5:30 AM EEST 8:16 PM EEST
Moon 2:37 PM EEST No Moon Set
Length Of Visible Light 12h 38m
Lama Satu Hari
11h 43m
Tomorrow will be 2m 41s shorter.
Triwulan Pertama, 56% of the Moon is Illuminated
Siang Ini
Triwulan Pertama
Oct 8
Bulan Purnama
Oct 15
Kuartil Terakhir
Oct 23
New
Oct 30
Triwulan Pertama

Yesterday's Extremes

Country Highs Country Lows

Community

WunderPhotos

Upload Photos

1,758,196 photos uploaded!

WunderBlogs® & News

By Dr. Jeff Masters
Director of Meteorology, Weather Underground
By Kari Strenfel
Meteorologist, Weather Underground
By Christopher C. Burt
Weather Historian, Weather Underground
October 2, 2014
October 2, 2014
October 2, 2014

Nearby

Snow Depth

Not available.

Earthquake Activity

City Distance Mag. Time & Date
No recent earthquake activity has been reported nearby.
Minimum magnitude displayed is 2.5.

Coastal Water Temperatures

Lokasi Temperatur
No Stations Reporting

Nearby Weather Stations